Aérodrome :







RETROUVEZ-NOUS SUR...

 
LOGIN :

S'inscrire | Disclaimer

   EN    FR    IT 

 









Légende :    VFR   VFR Marginal   IFR   IFR Intensif   IFR Très Intensif
Visi : 
Plafond : 
>= 8 km
>= 3000ft
5 à 8 km
1000 à 3000 ft
1500m à 5 km
500 à 1000 ft
800 à 1500m
200 à 500 ft
< 800m
< 200 ft
Symboles :   Orages  Brouillard  Fortes neiges  Fortes précipitations  Vent > 20 kt






- Altitude de l'aérodrome : 270 ft
- Code IATA : YMX


CYMX - Montreal International Mirabel

DERNIER METAR :
  • 031700Z 00000KT 30SM BKN026 OVC048 00/M02 A2988 RMK SC5SC3 SLP125

METARs EXPIRÉS :
  • 031600Z 00000KT 30SM OVC038 M01/M03 A2990 RMK SC8 SLP132
  • 031500Z 00000KT 25SM SCT032 OVC046 M02/M04 A2992 RMK SC3SC5 SLP137

TAF AMD TAF CYMX
Valide du 03 à 15h jusqu'au 04 à 12h UTC


031514Z 0315/0412 00000KT P6SM OVC040
TEMPO 0315/0317 OVC020
BECMG 0315/0317 23010G20KT
FM031700 23010G20KT P6SM BKN040
FM032000 23010G20KT P6SM -SHRA OVC030
FM040200 23010G20KT 3SM -RASN OVC020
PROB30 0408/0412 1SM BR OVC005 RMK NXT FCST BY 031800Z
FIR CZUL / Amérique du Nord



MET'MAP, la Météo Aéronautique d'un coup d'oeil ! - Copyright ORBIFLY Décembre 2007 - Disclaimer

ORBIFLY MET'MAP TEAM :

Programmation & Développement : Alexandra Zaïnal
Sur une idée originale de : Baudouin d'Aumeries
Assistance à la programmation : Marc-Olivier Méhu
Soutien technique & logistique : Manuel Goepfert

Contact : metmap@orbifly.com




SOURCES & CREDITS :

   NOAA